Terminal Aerodrome Forecast
Issued by NWS

Home | Current Version | Previous Version | Text Only | Print | Product List | Glossary On
Versions: 1 2 3 4 5 6 7 8 9 10 11 12 13 14 15 16 17 18 19 20 21 22 23 24 25 26 27 28 29 30 31 32 33 34 35 36
000
FTUS41 KBOX 280801 AAA
TAFMHT
TAF AMD
KMHT 280801Z 2808/2906 VRB03KT 1SM BR SCT004 BKN025
     FM281100 13005KT 4SM -SHRA BR OVC015
     FM281700 20007KT P6SM OVC025
     FM282200 22007KT P6SM BKN090
     FM290300 25007KT 6SM BR BKN025=

USA.gov is the U.S. government's official web portal to all federal, state and local government web resources and services.